createdAt,value
2023-03-06T00:29:59.941Z,95414.69
2023-03-06T00:47:49.806Z,95409.69
2023-03-06T00:52:18.070Z,95404.84
2023-03-06T00:54:45.195Z,95406.78
2023-03-06T00:57:12.355Z,95405.63
2023-03-06T01:01:30.920Z,95397.06
2023-03-06T01:03:59.845Z,95391.59
2023-03-06T01:06:34.392Z,95377.50
2023-03-06T01:09:02.560Z,95377.75
2023-03-06T01:11:32.557Z,95377.97
2023-03-06T01:14:10.090Z,95372.03
2023-03-06T01:16:37.284Z,95369.22
2023-03-06T01:19:04.727Z,95370.63
2023-03-06T01:21:31.827Z,95365.13
2023-03-06T01:23:58.941Z,95371.53
2023-03-06T01:26:26.048Z,95360.75
2023-03-06T01:28:53.165Z,95359.09
2023-03-06T01:31:20.363Z,95354.78
2023-03-06T01:33:47.447Z,95353.59
2023-03-06T01:36:14.930Z,95351.59
2023-03-06T01:38:42.272Z,95353.09
2023-03-06T01:41:09.619Z,95343.06
2023-03-06T01:43:38.645Z,95339.94
2023-03-06T01:46:24.314Z,95336.41
2023-03-06T01:49:27.040Z,95343.28
2023-03-06T01:52:03.669Z,95334.47
2023-03-06T01:54:52.274Z,95330.47
2023-03-06T01:57:24.072Z,95322.09
2023-03-06T01:59:55.922Z,95318.63
2023-03-06T02:02:23.216Z,95322.88
2023-03-06T02:04:50.671Z,95322.09
2023-03-06T02:07:19.924Z,95313.97
2023-03-06T02:09:47.376Z,95313.97
2023-03-06T02:12:19.103Z,95307.06
2023-03-06T02:14:47.036Z,95307.81
2023-03-06T02:17:16.984Z,95297.44
2023-03-06T02:20:02.962Z,95290.53
2023-03-06T02:23:05.326Z,95290.81
2023-03-06T02:25:38.756Z,95292.03
2023-03-06T02:28:09.738Z,95300.06
2023-03-06T02:30:37.831Z,95289.69
2023-03-06T02:33:05.110Z,95287.34
2023-03-06T02:35:35.519Z,95288.13
2023-03-06T02:38:08.312Z,95285.44
2023-03-06T02:40:35.458Z,95280.88
2023-03-06T02:43:02.810Z,95284.31
2023-03-06T02:45:35.679Z,95279.31
2023-03-06T02:48:13.859Z,95276.63
2023-03-06T02:50:42.740Z,95276.97
2023-03-06T02:53:11.670Z,95275.09
2023-03-06T02:55:39.392Z,95270.84
2023-03-06T02:58:07.339Z,95262.03
2023-03-06T03:00:34.760Z,95268.16
2023-03-06T03:03:02.369Z,95259.00
2023-03-06T03:05:29.467Z,95257.09
2023-03-06T03:07:56.634Z,95265.13
2023-03-06T03:10:24.656Z,95258.22
2023-03-06T03:12:51.999Z,95260.88
2023-03-06T03:15:19.393Z,95255.91
2023-03-06T03:17:46.514Z,95245.16
2023-03-06T03:20:17.591Z,95248.63
2023-03-06T03:22:50.025Z,95245.53
2023-03-06T03:25:17.892Z,95240.16
2023-03-06T03:27:45.062Z,95248.19
2023-03-06T03:30:12.527Z,95247.78
2023-03-06T03:32:39.622Z,95246.28
2023-03-06T03:35:08.293Z,95238.94
2023-03-06T03:37:36.087Z,95230.91
2023-03-06T03:40:03.871Z,95227.44
2023-03-06T03:42:30.954Z,95222.09
2023-03-06T03:44:58.029Z,95222.09
2023-03-06T03:47:25.151Z,95215.19
2023-03-06T03:49:52.239Z,95218.63
2023-03-06T03:52:19.351Z,95217.06
2023-03-06T03:54:47.316Z,95222.44
2023-03-06T03:57:14.409Z,95215.53
2023-03-06T03:59:41.479Z,95217.44
2023-03-06T04:02:08.723Z,95215.53
2023-03-06T04:04:35.823Z,95207.84
2023-03-06T04:07:03.295Z,95202.47
2023-03-06T04:09:30.419Z,95202.81
2023-03-06T04:11:57.502Z,95199.03
2023-03-06T04:14:24.606Z,95185.97
2023-03-06T04:16:51.662Z,95190.22
2023-03-06T04:19:18.731Z,95197.44
2023-03-06T04:21:45.799Z,95197.84
2023-03-06T04:24:13.004Z,95188.22
2023-03-06T04:26:40.118Z,95197.03
2023-03-06T04:29:07.904Z,95198.59
2023-03-06T04:31:35.038Z,95198.94
2023-03-06T04:34:02.199Z,95195.50
2023-03-06T04:36:32.482Z,95192.03
2023-03-06T04:39:00.690Z,95187.44
2023-03-06T04:41:27.874Z,95187.44
2023-03-06T04:43:55.137Z,95180.09
2023-03-06T04:46:22.202Z,95179.75
2023-03-06T04:48:49.295Z,95169.38
2023-03-06T04:51:16.554Z,95163.69
2023-03-06T04:53:43.745Z,95172.47
2023-03-06T04:56:10.813Z,95169.03
2023-03-06T04:58:38.222Z,95161.34
2023-03-06T05:01:05.643Z,95168.63
2023-03-06T05:03:32.871Z,95159.00
2023-03-06T05:06:00.486Z,95156.66
2023-03-06T05:08:27.605Z,95165.59
2023-03-06T05:10:57.227Z,95163.31
2023-03-06T05:13:24.891Z,95157.25
2023-03-06T05:15:52.117Z,95150.03
2023-03-06T05:18:19.363Z,95152.03
2023-03-06T05:20:46.807Z,95163.59
2023-03-06T05:23:13.961Z,95155.97
2023-03-06T05:25:41.803Z,95155.69
2023-03-06T05:28:09.974Z,95152.28
2023-03-06T05:30:37.110Z,95145.06
2023-03-06T05:33:04.215Z,95147.81
2023-03-06T05:35:31.839Z,95140.97
2023-03-06T05:37:58.976Z,95145.22
2023-03-06T05:40:26.101Z,95150.22
2023-03-06T05:42:53.280Z,95145.28
2023-03-06T05:45:20.472Z,95142.22
2023-03-06T05:47:48.123Z,95141.53
2023-03-06T05:50:15.246Z,95143.84
2023-03-06T05:52:42.334Z,95152.66
2023-03-06T05:55:12.108Z,95152.31
2023-03-06T05:57:39.185Z,95157.75
2023-03-06T06:00:07.277Z,95148.91
2023-03-06T06:02:34.437Z,95145.44
2023-03-06T06:05:02.685Z,95137.41
2023-03-06T06:07:29.762Z,95149.69
2023-03-06T06:09:57.142Z,95155.06
2023-03-06T06:12:24.442Z,95160.06
2023-03-06T06:14:51.496Z,95148.91
2023-03-06T06:17:18.772Z,95151.59
2023-03-06T06:19:45.932Z,95153.84
2023-03-06T06:22:13.271Z,95148.13
2023-03-06T06:24:40.631Z,95157.34
2023-03-06T06:27:08.232Z,95142.41
2023-03-06T06:29:35.399Z,95149.75
2023-03-06T06:32:02.529Z,95151.31
2023-03-06T06:34:29.784Z,95143.66
2023-03-06T06:36:56.882Z,95146.81
2023-03-06T06:39:24.590Z,95145.66
2023-03-06T06:42:05.640Z,95148.78
2023-03-06T06:44:38.874Z,95149.19
2023-03-06T06:47:24.576Z,95151.88
2023-03-06T06:49:53.477Z,95149.59
2023-03-06T06:52:21.085Z,95150.38
2023-03-06T06:54:48.165Z,95136.97
2023-03-06T06:57:16.168Z,95148.47
2023-03-06T06:59:43.323Z,95148.47
2023-03-06T07:02:15.268Z,95148.81
2023-03-06T07:05:00.232Z,95142.31
2023-03-06T07:07:29.822Z,95147.34
2023-03-06T07:09:57.099Z,95150.78
2023-03-06T07:12:24.235Z,95150.38
2023-03-06T07:14:51.359Z,95148.03
2023-03-06T07:17:18.467Z,95145.72
2023-03-06T07:19:45.556Z,95150.72
2023-03-06T07:22:12.798Z,95150.72
2023-03-06T07:24:39.879Z,95148.47
2023-03-06T07:27:07.019Z,95151.56
2023-03-06T07:29:34.210Z,95151.91
2023-03-06T07:32:01.841Z,95144.66
2023-03-06T07:34:29.076Z,95142.38
2023-03-06T07:36:56.202Z,95148.88
2023-03-06T07:39:23.353Z,95157.34
2023-03-06T07:41:50.521Z,95158.91
2023-03-06T07:44:17.620Z,95159.69
2023-03-06T07:46:44.722Z,95159.69
2023-03-06T07:49:11.834Z,95161.22
2023-03-06T07:51:38.976Z,95162.00
2023-03-06T07:54:06.122Z,95165.81
2023-03-06T07:56:33.507Z,95167.38
2023-03-06T07:59:01.021Z,95166.56
2023-03-06T08:01:28.110Z,95170.06
2023-03-06T08:03:55.454Z,95171.25
2023-03-06T08:06:25.738Z,95174.63
2023-03-06T08:08:54.505Z,95173.50
2023-03-06T08:11:24.030Z,95176.53
2023-03-06T08:13:51.679Z,95175.78
2023-03-06T08:16:23.957Z,95175.38
2023-03-06T08:18:51.622Z,95173.09
2023-03-06T08:21:21.922Z,95174.63
2023-03-06T08:23:48.998Z,95179.59
2023-03-06T08:26:19.534Z,95178.81
2023-03-06T08:28:47.238Z,95176.53
2023-03-06T08:31:29.408Z,95177.69
2023-03-06T08:33:58.214Z,95183.91
2023-03-06T08:36:25.838Z,95182.03
2023-03-06T08:38:53.172Z,95180.13
2023-03-06T08:41:20.822Z,95185.56
2023-03-06T08:43:48.172Z,95177.50
2023-03-06T08:46:16.010Z,95179.84
2023-03-06T08:48:43.188Z,95172.19
2023-03-06T08:51:11.197Z,95175.66
2023-03-06T08:53:43.490Z,95171.81
2023-03-06T08:56:20.016Z,95179.88
2023-03-06T08:58:47.515Z,95178.75
2023-03-06T09:01:21.488Z,95177.97
2023-03-06T09:03:49.529Z,95182.25
2023-03-06T09:06:17.172Z,95179.59
2023-03-06T09:08:44.452Z,95184.94
2023-03-06T09:11:15.784Z,95181.84
2023-03-06T09:13:43.350Z,95181.50
2023-03-06T09:16:11.555Z,95183.41
2023-03-06T09:18:39.251Z,95186.09
2023-03-06T09:21:07.570Z,95183.41
2023-03-06T09:23:35.199Z,95182.25
2023-03-06T09:26:02.620Z,95184.94
2023-03-06T09:28:29.721Z,95183.03
2023-03-06T09:30:57.129Z,95187.28
2023-03-06T09:33:24.445Z,95178.06
2023-03-06T09:35:58.283Z,95180.75
2023-03-06T09:38:28.150Z,95180.06
2023-03-06T09:40:58.205Z,95180.81
2023-03-06T09:43:31.024Z,95175.50
2023-03-06T09:45:58.859Z,95183.22
2023-03-06T09:48:52.093Z,95178.56
2023-03-06T09:51:24.331Z,95175.56
2023-03-06T09:54:09.496Z,95175.16
2023-03-06T09:56:37.420Z,95171.75
2023-03-06T09:59:14.933Z,95170.19
2023-03-06T10:01:50.540Z,95161.75
2023-03-06T10:04:36.516Z,95162.16
2023-03-06T10:07:11.155Z,95162.91
2023-03-06T10:09:45.196Z,95159.47
2023-03-06T10:12:25.998Z,95163.28
2023-03-06T10:15:17.412Z,95157.50
2023-03-06T10:17:44.724Z,95153.28
2023-03-06T10:20:34.541Z,95162.50
2023-03-06T10:23:09.979Z,95158.66
2023-03-06T10:25:43.843Z,95153.69
2023-03-06T10:28:24.911Z,95142.94
2023-03-06T10:31:05.395Z,95145.25
2023-03-06T10:33:59.517Z,95142.19
2023-03-06T10:36:29.129Z,95141.06
2023-03-06T10:38:58.501Z,95143.41
2023-03-06T10:41:28.361Z,95136.88
2023-03-06T10:44:01.444Z,95134.97
2023-03-06T10:46:50.045Z,95138.03
2023-03-06T10:49:26.266Z,95138.44
2023-03-06T10:52:02.711Z,95138.03
2023-03-06T10:54:34.256Z,95140.34
2023-03-06T10:57:18.534Z,95136.88
2023-03-06T10:59:57.692Z,95137.66
2023-03-06T11:02:29.259Z,95128.88
2023-03-06T11:04:58.178Z,95135.38
2023-03-06T11:07:29.132Z,95124.63
2023-03-06T11:09:59.271Z,95133.50
2023-03-06T11:12:37.374Z,95124.28
2023-03-06T11:15:07.488Z,95125.84
2023-03-06T11:17:37.541Z,95128.16
2023-03-06T11:20:18.436Z,95123.16
2023-03-06T11:22:54.489Z,95116.63
2023-03-06T11:25:26.276Z,95119.31
2023-03-06T11:28:25.684Z,95117.41
2023-03-06T11:31:00.434Z,95115.94
2023-03-06T11:33:34.091Z,95112.13
2023-03-06T11:36:15.180Z,95110.19
2023-03-06T11:38:48.943Z,95112.59
2023-03-06T11:41:46.687Z,95110.25
2023-03-06T11:44:36.988Z,95100.66
2023-03-06T11:47:23.251Z,95110.66
2023-03-06T11:50:04.580Z,95101.06
2023-03-06T11:52:59.689Z,95097.63
2023-03-06T11:55:51.737Z,95093.41
2023-03-06T11:58:52.510Z,95092.66
2023-03-06T12:01:43.953Z,95083.03
2023-03-06T12:04:23.151Z,95079.22
2023-03-06T12:07:15.447Z,95074.63
2023-03-06T12:09:54.760Z,95078.06
2023-03-06T12:12:41.117Z,95071.56
2023-03-06T12:15:16.005Z,95075.38
2023-03-06T12:17:54.909Z,95075.38
2023-03-06T12:20:27.968Z,95074.25
2023-03-06T12:23:16.027Z,95070.38
2023-03-06T12:25:48.364Z,95069.66
2023-03-06T12:28:33.948Z,95069.66
2023-03-06T12:31:22.601Z,95067.31
2023-03-06T12:34:03.472Z,95069.25
2023-03-06T12:36:50.507Z,95066.16
2023-03-06T12:39:19.457Z,95063.88
2023-03-06T12:42:23.471Z,95067.28
2023-03-06T12:45:11.053Z,95071.88
2023-03-06T12:47:47.086Z,95058.81
2023-03-06T12:50:27.833Z,95064.94
2023-03-06T12:52:57.807Z,95063.81
2023-03-06T12:55:26.103Z,95061.09
2023-03-06T12:57:53.624Z,95063.00
2023-03-06T13:00:32.534Z,95059.88
2023-03-06T13:03:56.636Z,95064.13
2023-03-06T13:06:30.925Z,95055.34
2023-03-06T13:09:11.111Z,95054.19
2023-03-06T13:12:07.775Z,95051.53
2023-03-06T13:14:42.337Z,95052.34
2023-03-06T13:17:24.725Z,95045.84
2023-03-06T13:20:13.772Z,95040.81
2023-03-06T13:22:46.142Z,95047.41
2023-03-06T13:25:19.269Z,95047.00
2023-03-06T13:27:52.192Z,95049.75
2023-03-06T13:30:39.076Z,95058.56
2023-03-06T13:33:44.685Z,95059.25
2023-03-06T13:36:25.012Z,95060.81
2023-03-06T13:38:52.050Z,95069.66
2023-03-06T13:41:24.783Z,95066.59
2023-03-06T13:43:57.155Z,95080.41
2023-03-06T13:46:28.823Z,95080.41
2023-03-06T13:49:08.236Z,95082.69
2023-03-06T13:51:41.057Z,95075.38
2023-03-06T13:54:10.964Z,95081.16
2023-03-06T13:56:52.829Z,95071.19
2023-03-06T13:59:28.693Z,95071.97
2023-03-06T14:02:36.028Z,95065.78
2023-03-06T14:05:10.661Z,95063.50
2023-03-06T14:08:09.486Z,95065.78
2023-03-06T14:10:38.447Z,95070.81
2023-03-06T14:13:23.584Z,95060.44
2023-03-06T14:15:53.566Z,95064.34
2023-03-06T14:18:24.358Z,95063.94
2023-03-06T14:21:02.657Z,95063.19
2023-03-06T14:23:37.374Z,95061.25
2023-03-06T14:26:24.211Z,95057.03
2023-03-06T14:29:02.868Z,95061.25
2023-03-06T14:31:42.684Z,95054.34
2023-03-06T14:34:25.539Z,95057.81
2023-03-06T14:36:55.014Z,95052.06
2023-03-06T14:39:36.801Z,95055.13
2023-03-06T14:42:18.704Z,95049.38
2023-03-06T14:44:59.647Z,95051.72
2023-03-06T14:47:30.814Z,95050.91
2023-03-06T14:50:19.726Z,95049.75
2023-03-06T14:52:47.846Z,95050.16
2023-03-06T14:55:21.129Z,95045.13
2023-03-06T14:57:54.843Z,95048.63
2023-03-06T15:00:24.649Z,95047.47
2023-03-06T15:02:54.983Z,95047.81
2023-03-06T15:05:26.723Z,95049.75
2023-03-06T15:07:58.092Z,95045.13
2023-03-06T15:10:33.553Z,95046.28
2023-03-06T15:13:09.797Z,95046.28
2023-03-06T15:15:36.968Z,95050.50
2023-03-06T15:18:28.490Z,95045.53
2023-03-06T15:21:07.607Z,95049.38
2023-03-06T15:23:36.545Z,95050.56
2023-03-06T15:26:29.257Z,95052.88
2023-03-06T15:29:08.910Z,95050.97
2023-03-06T15:31:42.261Z,95052.16
2023-03-06T15:34:09.369Z,95044.50
2023-03-06T15:36:39.119Z,95052.56
2023-03-06T15:39:26.672Z,95041.03
2023-03-06T15:41:58.192Z,95039.91
2023-03-06T15:44:26.271Z,95044.91
2023-03-06T15:46:59.235Z,95035.72
2023-03-06T15:49:33.660Z,95038.38
2023-03-06T15:52:00.747Z,95036.47
2023-03-06T15:54:27.825Z,95039.94
2023-03-06T15:56:54.991Z,95040.31
2023-03-06T15:59:25.076Z,95046.44
2023-03-06T16:01:53.267Z,95044.13
2023-03-06T16:04:20.443Z,95043.34
2023-03-06T16:06:47.576Z,95037.97
2023-03-06T16:09:14.696Z,95045.28
2023-03-06T16:11:44.250Z,95043.72
2023-03-06T16:14:20.356Z,95032.56
2023-03-06T16:16:48.363Z,95045.28
2023-03-06T16:19:25.896Z,95046.41
2023-03-06T16:21:54.473Z,95042.19
2023-03-06T16:24:21.669Z,95049.47
2023-03-06T16:26:51.120Z,95057.91
2023-03-06T16:29:27.981Z,95051.31
2023-03-06T16:31:57.051Z,95048.22
2023-03-06T16:34:24.824Z,95049.75
2023-03-06T16:36:52.129Z,95054.72
2023-03-06T16:39:22.140Z,95051.63
2023-03-06T16:41:51.026Z,95052.78
2023-03-06T16:44:18.445Z,95062.34
2023-03-06T16:46:48.088Z,95051.22
2023-03-06T16:49:21.496Z,95060.41
2023-03-06T16:51:49.503Z,95059.25
2023-03-06T16:54:16.690Z,95054.25
2023-03-06T16:56:44.663Z,95055.81
2023-03-06T16:59:12.469Z,95063.13
2023-03-06T17:01:41.676Z,95064.34
2023-03-06T17:04:08.877Z,95061.66
2023-03-06T17:06:36.070Z,95051.31
2023-03-06T17:09:03.679Z,95063.22
2023-03-06T17:11:30.896Z,95065.91
2023-03-06T17:13:57.967Z,95070.88
2023-03-06T17:16:25.092Z,95079.28
2023-03-06T17:18:52.238Z,95076.25
2023-03-06T17:21:19.406Z,95078.56
2023-03-06T17:23:46.555Z,95077.44
2023-03-06T17:26:16.836Z,95085.47
2023-03-06T17:28:43.939Z,95090.13
2023-03-06T17:31:15.059Z,95092.06
2023-03-06T17:33:42.512Z,95101.28
2023-03-06T17:36:10.659Z,95098.97
2023-03-06T17:38:37.960Z,95098.19
2023-03-06T17:41:06.904Z,95102.81
2023-03-06T17:43:34.067Z,95106.25
2023-03-06T17:46:10.162Z,95110.88
2023-03-06T17:48:39.711Z,95106.25
2023-03-06T17:51:12.179Z,95108.59
2023-03-06T17:53:39.992Z,95114.72
2023-03-06T17:56:09.144Z,95108.59
2023-03-06T17:58:36.272Z,95113.56
2023-03-06T18:01:14.760Z,95110.88
2023-03-06T18:03:47.807Z,95113.13
2023-03-06T18:06:16.247Z,95116.19
2023-03-06T18:08:43.779Z,95114.28
2023-03-06T18:11:11.342Z,95115.03
2023-03-06T18:13:41.475Z,95118.09
2023-03-06T18:16:11.299Z,95120.75
2023-03-06T18:18:38.825Z,95119.22
2023-03-06T18:21:08.628Z,95121.91
2023-03-06T18:23:36.774Z,95116.91
2023-03-06T18:26:21.858Z,95121.47
2023-03-06T18:28:53.275Z,95118.00
2023-03-06T18:31:23.283Z,95121.47
2023-03-06T18:33:55.614Z,95124.19
2023-03-06T18:36:24.136Z,95118.47
2023-03-06T18:38:51.706Z,95126.56
2023-03-06T18:41:19.788Z,95127.34
2023-03-06T18:43:52.387Z,95123.88
2023-03-06T18:46:19.538Z,95123.91
2023-03-06T18:48:46.613Z,95125.06
2023-03-06T18:51:14.339Z,95118.13
2023-03-06T18:53:42.207Z,95122.38
2023-03-06T18:56:13.114Z,95124.31
2023-03-06T18:58:40.249Z,95120.06
2023-03-06T19:01:07.819Z,95123.50
2023-03-06T19:03:35.106Z,95126.19
2023-03-06T19:06:07.455Z,95126.19
2023-03-06T19:08:35.424Z,95117.38
2023-03-06T19:11:05.255Z,95123.91
2023-03-06T19:13:32.844Z,95127.75
2023-03-06T19:16:00.374Z,95128.47
2023-03-06T19:18:28.574Z,95120.34
2023-03-06T19:20:55.828Z,95129.16
2023-03-06T19:23:22.904Z,95117.94
2023-03-06T19:26:00.214Z,95118.25
2023-03-06T19:28:27.801Z,95121.00
2023-03-06T19:30:56.231Z,95121.78
2023-03-06T19:33:23.578Z,95126.00
2023-03-06T19:35:50.746Z,95125.66
2023-03-06T19:38:17.958Z,95131.03
2023-03-06T19:40:51.295Z,95127.56
2023-03-06T19:43:18.386Z,95129.09
2023-03-06T19:45:45.497Z,95132.97
2023-03-06T19:48:12.768Z,95131.50
2023-03-06T19:50:40.660Z,95133.84
2023-03-06T19:53:07.879Z,95127.00
2023-03-06T19:55:34.945Z,95127.41
2023-03-06T19:58:02.084Z,95129.41
2023-03-06T20:00:29.818Z,95129.44
2023-03-06T20:02:57.713Z,95128.69
2023-03-06T20:05:24.797Z,95121.03
2023-03-06T20:07:52.218Z,95131.84
2023-03-06T20:10:19.347Z,95128.78
2023-03-06T20:12:46.451Z,95138.41
2023-03-06T20:15:13.578Z,95136.09
2023-03-06T20:17:40.744Z,95135.69
2023-03-06T20:20:09.460Z,95128.34
2023-03-06T20:22:36.702Z,95126.00
2023-03-06T20:25:04.349Z,95130.63
2023-03-06T20:27:31.471Z,95123.69
2023-03-06T20:29:58.601Z,95124.06
2023-03-06T20:32:25.758Z,95120.22
2023-03-06T20:34:52.988Z,95125.97
2023-03-06T20:37:20.068Z,95129.06
2023-03-06T20:39:47.154Z,95130.25
2023-03-06T20:42:14.259Z,95121.03
2023-03-06T20:44:41.327Z,95130.66
2023-03-06T20:47:08.421Z,95127.97
2023-03-06T20:49:35.551Z,95127.22
2023-03-06T20:52:02.698Z,95125.28
2023-03-06T20:54:29.808Z,95125.28
2023-03-06T20:56:56.901Z,95125.66
2023-03-06T20:59:33.239Z,95118.34
2023-03-06T21:02:00.842Z,95108.75
2023-03-06T21:04:27.969Z,95114.13
2023-03-06T21:06:55.318Z,95110.28
2023-03-06T21:09:22.415Z,95110.69
2023-03-06T21:11:49.553Z,95121.44
2023-03-06T21:14:16.673Z,95104.09
2023-03-06T21:16:44.171Z,95111.81
2023-03-06T21:19:11.296Z,95113.72
2023-03-06T21:21:38.416Z,95103.75
2023-03-06T21:24:05.749Z,95104.09
2023-03-06T21:26:33.308Z,95104.09
2023-03-06T21:29:01.584Z,95093.72
2023-03-06T21:31:29.777Z,95101.78
2023-03-06T21:33:57.567Z,95098.31
2023-03-06T21:36:25.136Z,95099.09
2023-03-06T21:38:53.632Z,95098.69
2023-03-06T21:41:28.643Z,95092.13
2023-03-06T21:43:57.557Z,95098.28
2023-03-06T21:46:25.714Z,95089.44
2023-03-06T21:48:53.658Z,95090.59
2023-03-06T21:51:22.091Z,95090.59
2023-03-06T21:53:50.111Z,95088.28
2023-03-06T21:56:19.353Z,95088.28
2023-03-06T21:58:46.676Z,95092.09
2023-03-06T22:01:18.406Z,95087.09
2023-03-06T22:03:45.858Z,95083.25
2023-03-06T22:06:15.493Z,95081.72
2023-03-06T22:08:43.553Z,95075.56
2023-03-06T22:11:16.940Z,95077.84
2023-03-06T22:13:45.515Z,95077.84
2023-03-06T22:16:12.915Z,95075.50
2023-03-06T22:18:40.565Z,95073.56
2023-03-06T22:21:09.576Z,95074.66
2023-03-06T22:23:37.164Z,95066.19
2023-03-06T22:26:10.044Z,95072.28
2023-03-06T22:28:37.399Z,95066.16
2023-03-06T22:31:25.379Z,95066.47
2023-03-06T22:33:54.885Z,95063.78
2023-03-06T22:36:23.712Z,95073.38
2023-03-06T22:38:59.075Z,95061.78
2023-03-06T22:41:27.068Z,95053.34
2023-03-06T22:44:01.857Z,95063.66
2023-03-06T22:46:30.250Z,95057.13
2023-03-06T22:48:58.485Z,95058.28
2023-03-06T22:51:27.329Z,95054.41
2023-03-06T22:53:54.411Z,95049.03
2023-03-06T22:56:22.134Z,95045.59
2023-03-06T22:58:49.332Z,95057.47
2023-03-06T23:01:16.419Z,95049.78
2023-03-06T23:03:46.239Z,95055.50
2023-03-06T23:06:21.065Z,95055.09
2023-03-06T23:08:50.922Z,95045.88
2023-03-06T23:11:19.622Z,95051.25
2023-03-06T23:13:47.134Z,95052.78
2023-03-06T23:16:14.376Z,95051.22
2023-03-06T23:18:41.629Z,95044.31
2023-03-06T23:21:11.006Z,95037.41
2023-03-06T23:23:38.718Z,95043.53
2023-03-06T23:26:07.470Z,95038.13
2023-03-06T23:28:34.613Z,95033.50
2023-03-06T23:31:07.652Z,95032.34
2023-03-06T23:33:35.313Z,95036.59
2023-03-06T23:36:04.501Z,95039.25
2023-03-06T23:38:31.724Z,95038.47
2023-03-06T23:41:11.457Z,95043.81
2023-03-06T23:43:38.682Z,95040.75
2023-03-06T23:46:06.834Z,95054.16
2023-03-06T23:48:35.402Z,95048.38
2023-03-06T23:51:12.985Z,95039.16
2023-03-06T23:53:40.130Z,95040.69
2023-03-06T23:56:07.718Z,95035.31
2023-03-06T23:58:35.502Z,95031.47
